createdAt,value
2023-03-03T00:00:55.497Z,13.88
2023-03-03T00:03:24.567Z,14.05
2023-03-03T00:05:52.049Z,13.48
2023-03-03T00:08:20.268Z,13.23
2023-03-03T00:10:47.409Z,13.50
2023-03-03T00:13:23.032Z,12.85
2023-03-03T00:15:50.496Z,12.85
2023-03-03T00:18:36.393Z,11.95
2023-03-03T00:21:08.957Z,12.88
2023-03-03T00:23:38.782Z,11.98
2023-03-03T00:26:30.935Z,11.13
2023-03-03T00:28:57.466Z,12.20
2023-03-03T00:31:31.106Z,11.70
2023-03-03T00:34:11.913Z,11.70
2023-03-03T00:36:39.437Z,10.43
2023-03-03T00:39:14.779Z,11.18
2023-03-03T00:41:41.348Z,10.63
2023-03-03T00:44:43.915Z,11.07
2023-03-03T00:47:36.765Z,10.70
2023-03-03T00:50:06.302Z,10.57
2023-03-03T00:52:44.680Z,9.73
2023-03-03T00:55:12.108Z,9.88
2023-03-03T00:57:38.571Z,9.57
2023-03-03T01:00:05.597Z,8.68
2023-03-03T01:02:32.096Z,9.20
2023-03-03T01:04:58.635Z,9.57
2023-03-03T01:07:25.649Z,9.77
2023-03-03T01:09:52.272Z,8.50
2023-03-03T01:12:18.831Z,8.95
2023-03-03T01:14:45.914Z,9.20
2023-03-03T01:17:12.510Z,8.00
2023-03-03T01:19:39.012Z,8.38
2023-03-03T01:22:05.553Z,8.63
2023-03-03T01:24:32.129Z,8.63
2023-03-03T01:26:58.606Z,8.07
2023-03-03T01:29:25.275Z,8.18
2023-03-03T01:31:51.900Z,8.43
2023-03-03T01:34:18.462Z,7.60
2023-03-03T01:36:45.003Z,7.20
2023-03-03T01:39:12.226Z,8.50
2023-03-03T01:41:38.785Z,7.15
2023-03-03T01:44:05.422Z,7.50
2023-03-03T01:46:44.467Z,7.22
2023-03-03T01:49:17.932Z,6.50
2023-03-03T01:51:51.845Z,6.82
2023-03-03T01:54:25.220Z,7.85
2023-03-03T01:56:55.933Z,6.82
2023-03-03T01:59:29.108Z,7.10
2023-03-03T02:01:55.737Z,7.38
2023-03-03T02:04:22.749Z,6.18
2023-03-03T02:06:56.678Z,7.05
2023-03-03T02:09:37.216Z,6.55
2023-03-03T02:12:08.226Z,6.82
2023-03-03T02:14:35.147Z,5.93
2023-03-03T02:17:01.691Z,6.13
2023-03-03T02:19:33.086Z,6.15
2023-03-03T02:22:02.218Z,6.72
2023-03-03T02:24:39.032Z,6.38
2023-03-03T02:27:05.591Z,6.28
2023-03-03T02:29:32.159Z,5.65
2023-03-03T02:31:58.857Z,5.88
2023-03-03T02:34:26.708Z,5.43
2023-03-03T02:36:53.249Z,6.22
2023-03-03T02:39:22.582Z,6.13
2023-03-03T02:42:09.677Z,5.72
2023-03-03T02:44:36.608Z,5.75
2023-03-03T02:47:03.185Z,5.00
2023-03-03T02:49:32.262Z,5.40
2023-03-03T02:51:59.840Z,6.45
2023-03-03T02:54:30.169Z,5.35
2023-03-03T02:56:57.324Z,5.53
2023-03-03T02:59:24.135Z,5.60
2023-03-03T03:01:50.780Z,5.18
2023-03-03T03:04:23.041Z,4.85
2023-03-03T03:06:50.437Z,4.57
2023-03-03T03:09:18.639Z,5.07
2023-03-03T03:11:45.272Z,4.95
2023-03-03T03:14:14.105Z,4.90
2023-03-03T03:16:40.940Z,5.05
2023-03-03T03:19:07.925Z,4.85
2023-03-03T03:21:34.486Z,4.82
2023-03-03T03:24:01.410Z,4.88
2023-03-03T03:26:27.984Z,4.80
2023-03-03T03:28:54.646Z,5.00
2023-03-03T03:31:22.128Z,5.00
2023-03-03T03:33:49.142Z,4.55
2023-03-03T03:36:16.235Z,4.45
2023-03-03T03:38:43.195Z,4.28
2023-03-03T03:41:11.063Z,4.50
2023-03-03T03:43:38.001Z,4.40
2023-03-03T03:46:04.925Z,4.53
2023-03-03T03:48:31.448Z,4.53
2023-03-03T03:50:57.983Z,4.15
2023-03-03T03:53:24.501Z,4.47
2023-03-03T03:55:51.027Z,4.38
2023-03-03T03:58:19.002Z,4.28
2023-03-03T04:00:46.866Z,3.78
2023-03-03T04:03:16.667Z,4.10
2023-03-03T04:05:43.918Z,4.30
2023-03-03T04:08:10.851Z,3.63
2023-03-03T04:10:37.626Z,3.72
2023-03-03T04:13:04.651Z,3.85
2023-03-03T04:15:31.267Z,3.50
2023-03-03T04:17:57.888Z,3.78
2023-03-03T04:20:24.403Z,4.07
2023-03-03T04:22:50.894Z,4.20
2023-03-03T04:25:17.878Z,3.78
2023-03-03T04:27:44.625Z,4.10
2023-03-03T04:30:12.829Z,3.60
2023-03-03T04:32:39.535Z,3.78
2023-03-03T04:35:08.370Z,3.95
2023-03-03T04:37:36.450Z,3.78
2023-03-03T04:40:04.780Z,3.97
2023-03-03T04:42:31.369Z,3.80
2023-03-03T04:44:57.937Z,3.08
2023-03-03T04:47:24.481Z,3.60
2023-03-03T04:49:51.030Z,3.55
2023-03-03T04:52:17.589Z,3.45
2023-03-03T04:54:44.312Z,3.47
2023-03-03T04:57:10.805Z,3.53
2023-03-03T04:59:37.439Z,3.50
2023-03-03T05:02:07.027Z,3.75
2023-03-03T05:04:33.928Z,3.13
2023-03-03T05:07:00.799Z,3.03
2023-03-03T05:09:27.516Z,4.13
2023-03-03T05:11:54.414Z,3.40
2023-03-03T05:14:21.012Z,3.13
2023-03-03T05:16:47.688Z,3.33
2023-03-03T05:19:14.265Z,3.20
2023-03-03T05:21:43.583Z,3.50
2023-03-03T05:24:12.051Z,3.53
2023-03-03T05:26:39.860Z,3.50
2023-03-03T05:29:07.175Z,3.17
2023-03-03T05:31:33.748Z,3.33
2023-03-03T05:34:00.343Z,3.25
2023-03-03T05:36:26.920Z,3.22
2023-03-03T05:38:53.495Z,2.90
2023-03-03T05:41:20.519Z,3.22
2023-03-03T05:43:47.017Z,3.53
2023-03-03T05:46:13.577Z,2.97
2023-03-03T05:48:40.128Z,3.00
2023-03-03T05:51:06.932Z,2.80
2023-03-03T05:53:33.425Z,2.95
2023-03-03T05:56:00.035Z,2.70
2023-03-03T05:58:26.598Z,2.90
2023-03-03T06:00:53.123Z,3.40
2023-03-03T06:03:19.716Z,2.95
2023-03-03T06:05:46.269Z,3.00
2023-03-03T06:08:12.961Z,2.55
2023-03-03T06:10:39.494Z,2.95
2023-03-03T06:13:05.995Z,2.97
2023-03-03T06:15:32.704Z,2.50
2023-03-03T06:17:59.425Z,2.53
2023-03-03T06:20:25.951Z,2.50
2023-03-03T06:22:52.508Z,3.08
2023-03-03T06:25:18.994Z,2.50
2023-03-03T06:27:45.530Z,2.60
2023-03-03T06:30:12.948Z,2.72
2023-03-03T06:32:39.855Z,2.25
2023-03-03T06:35:06.865Z,2.30
2023-03-03T06:37:33.596Z,2.78
2023-03-03T06:40:00.593Z,2.70
2023-03-03T06:42:27.150Z,2.47
2023-03-03T06:44:53.716Z,3.33
2023-03-03T06:47:20.295Z,3.40
2023-03-03T06:49:46.821Z,4.20
2023-03-03T06:52:18.449Z,3.88
2023-03-03T06:54:45.053Z,3.30
2023-03-03T06:57:26.418Z,3.50
2023-03-03T06:59:55.333Z,3.88
2023-03-03T07:02:22.935Z,3.40
2023-03-03T07:04:49.594Z,3.65
2023-03-03T07:07:25.157Z,3.90
2023-03-03T07:09:55.433Z,3.70
2023-03-03T07:12:29.376Z,3.67
2023-03-03T07:15:11.660Z,3.70
2023-03-03T07:17:44.036Z,3.45
2023-03-03T07:20:23.019Z,4.43
2023-03-03T07:22:50.113Z,4.07
2023-03-03T07:25:39.141Z,4.20
2023-03-03T07:28:32.976Z,4.22
2023-03-03T07:30:59.925Z,5.07
2023-03-03T07:33:42.438Z,4.55
2023-03-03T07:36:26.274Z,5.00
2023-03-03T07:39:00.295Z,6.35
2023-03-03T07:41:27.704Z,7.30
2023-03-03T07:44:00.111Z,7.35
2023-03-03T07:46:41.453Z,7.90
2023-03-03T07:49:37.325Z,8.77
2023-03-03T07:52:27.895Z,8.82
2023-03-03T07:54:57.382Z,8.80
2023-03-03T07:57:27.602Z,9.55
2023-03-03T07:59:59.578Z,9.30
2023-03-03T08:02:28.973Z,8.73
2023-03-03T08:04:55.826Z,9.45
2023-03-03T08:07:23.362Z,10.60
2023-03-03T08:10:01.281Z,11.23
2023-03-03T08:12:42.049Z,10.75
2023-03-03T08:15:14.558Z,10.80
2023-03-03T08:17:42.862Z,11.02
2023-03-03T08:20:29.609Z,11.05
2023-03-03T08:22:56.170Z,12.20
2023-03-03T08:25:22.953Z,10.85
2023-03-03T08:27:49.487Z,11.27
2023-03-03T08:30:16.202Z,13.07
2023-03-03T08:32:43.026Z,11.63
2023-03-03T08:35:09.722Z,11.90
2023-03-03T08:37:36.284Z,11.63
2023-03-03T08:40:02.914Z,13.40
2023-03-03T08:42:30.122Z,12.38
2023-03-03T08:44:56.690Z,12.15
2023-03-03T08:47:23.255Z,11.90
2023-03-03T08:49:49.877Z,12.82
2023-03-03T08:52:16.362Z,13.07
2023-03-03T08:54:42.860Z,13.70
2023-03-03T08:57:09.352Z,13.73
2023-03-03T08:59:38.977Z,13.18
2023-03-03T09:02:07.051Z,13.07
2023-03-03T09:04:33.978Z,13.38
2023-03-03T09:07:00.784Z,13.57
2023-03-03T09:09:27.313Z,13.20
2023-03-03T09:11:58.595Z,13.07
2023-03-03T09:14:29.184Z,13.55
2023-03-03T09:16:57.535Z,13.70
2023-03-03T09:19:30.807Z,12.30
2023-03-03T09:22:03.353Z,13.55
2023-03-03T09:24:34.960Z,13.25
2023-03-03T09:27:01.468Z,12.57
2023-03-03T09:29:31.303Z,13.93
2023-03-03T09:32:14.075Z,12.70
2023-03-03T09:34:42.410Z,13.07
2023-03-03T09:37:28.573Z,13.20
2023-03-03T09:39:57.547Z,13.35
2023-03-03T09:42:50.721Z,13.05
2023-03-03T09:45:31.642Z,13.07
2023-03-03T09:48:23.499Z,12.73
2023-03-03T09:51:08.817Z,12.27
2023-03-03T09:53:47.643Z,12.57
2023-03-03T09:56:35.076Z,12.40
2023-03-03T09:59:34.867Z,12.70
2023-03-03T10:02:13.596Z,11.82
2023-03-03T10:04:59.090Z,12.25
2023-03-03T10:07:34.713Z,12.43
2023-03-03T10:10:42.668Z,12.38
2023-03-03T10:13:26.318Z,13.13
2023-03-03T10:16:13.816Z,12.10
2023-03-03T10:18:58.351Z,11.80
2023-03-03T10:21:36.122Z,11.93
2023-03-03T10:24:08.747Z,12.02
2023-03-03T10:27:14.237Z,11.70
2023-03-03T10:30:14.703Z,11.40
2023-03-03T10:33:07.573Z,10.88
2023-03-03T10:36:06.706Z,11.15
2023-03-03T10:39:03.999Z,11.13
2023-03-03T10:41:39.471Z,13.43
2023-03-03T10:44:34.753Z,12.45
2023-03-03T10:47:15.596Z,13.35
2023-03-03T10:50:00.785Z,13.23
2023-03-03T10:52:46.501Z,14.40
2023-03-03T10:55:24.440Z,13.10
2023-03-03T10:58:27.914Z,14.23
2023-03-03T11:01:17.413Z,14.55
2023-03-03T11:03:43.919Z,14.80
2023-03-03T11:06:26.416Z,14.68
2023-03-03T11:09:18.406Z,16.15
2023-03-03T11:11:55.734Z,15.43
2023-03-03T11:14:31.896Z,15.13
2023-03-03T11:17:15.150Z,14.55
2023-03-03T11:20:09.696Z,15.50
2023-03-03T11:23:00.976Z,14.73
2023-03-03T11:25:40.153Z,16.30
2023-03-03T11:28:19.107Z,15.75
2023-03-03T11:31:04.272Z,15.65
2023-03-03T11:33:40.014Z,18.77
2023-03-03T11:36:23.396Z,19.05
2023-03-03T11:38:55.871Z,19.05
2023-03-03T11:41:43.455Z,17.98
2023-03-03T11:44:14.314Z,18.50
2023-03-03T11:46:48.586Z,17.40
2023-03-03T11:49:24.300Z,17.35
2023-03-03T11:52:05.997Z,18.90
2023-03-03T11:54:47.705Z,19.42
2023-03-03T11:57:24.595Z,19.33
2023-03-03T11:59:58.407Z,19.98
2023-03-03T12:02:43.879Z,21.15
2023-03-03T12:05:32.657Z,21.40
2023-03-03T12:08:36.628Z,22.75
2023-03-03T12:11:30.081Z,20.60
2023-03-03T12:14:13.661Z,20.33
2023-03-03T12:16:40.207Z,19.25
2023-03-03T12:20:14.800Z,20.63
2023-03-03T12:23:06.488Z,22.57
2023-03-03T12:25:41.226Z,21.58
2023-03-03T12:28:20.899Z,21.17
2023-03-03T12:30:47.349Z,20.65
2023-03-03T12:33:36.793Z,20.50
2023-03-03T12:36:18.616Z,21.05
2023-03-03T12:39:01.025Z,20.20
2023-03-03T12:41:33.579Z,20.33
2023-03-03T12:44:09.571Z,19.33
2023-03-03T12:46:51.277Z,20.77
2023-03-03T12:49:17.895Z,36.10
2023-03-03T12:52:16.894Z,28.77
2023-03-03T12:54:53.563Z,37.15
2023-03-03T12:57:40.666Z,35.28
2023-03-03T13:00:25.893Z,33.97
2023-03-03T13:03:02.009Z,32.75
2023-03-03T13:05:49.636Z,32.78
2023-03-03T13:08:37.560Z,32.45
2023-03-03T13:11:22.410Z,32.33
2023-03-03T13:14:24.342Z,31.23
2023-03-03T13:17:23.123Z,27.42
2023-03-03T13:19:57.673Z,30.88
2023-03-03T13:22:24.124Z,29.67
2023-03-03T13:24:56.513Z,28.80
2023-03-03T13:27:32.497Z,28.02
2023-03-03T13:30:03.172Z,28.20
2023-03-03T13:32:43.142Z,33.08
2023-03-03T13:35:27.478Z,33.03
2023-03-03T13:37:56.760Z,30.98
2023-03-03T13:40:43.489Z,30.23
2023-03-03T13:43:24.622Z,31.13
2023-03-03T13:46:16.308Z,28.83
2023-03-03T13:49:01.787Z,29.33
2023-03-03T13:51:45.146Z,28.63
2023-03-03T13:54:30.291Z,27.13
2023-03-03T13:57:13.074Z,26.02
2023-03-03T13:59:57.633Z,25.35
2023-03-03T14:02:39.251Z,26.73
2023-03-03T14:05:30.595Z,24.90
2023-03-03T14:08:00.941Z,25.08
2023-03-03T14:10:38.084Z,23.48
2023-03-03T14:13:19.722Z,22.27
2023-03-03T14:16:04.252Z,24.23
2023-03-03T14:18:36.048Z,24.02
2023-03-03T14:21:12.281Z,23.02
2023-03-03T14:24:08.314Z,21.48
2023-03-03T14:26:56.558Z,21.67
2023-03-03T14:29:28.817Z,21.80
2023-03-03T14:32:01.620Z,21.73
2023-03-03T14:34:41.198Z,22.97
2023-03-03T14:37:29.172Z,19.10
2023-03-03T14:40:22.274Z,19.38
2023-03-03T14:42:58.897Z,19.98
2023-03-03T14:45:38.178Z,19.65
2023-03-03T14:48:10.683Z,19.95
2023-03-03T14:50:40.450Z,23.20
2023-03-03T14:53:33.086Z,19.52
2023-03-03T14:56:22.931Z,21.52
2023-03-03T14:58:50.483Z,23.30
2023-03-03T15:01:29.016Z,29.17
2023-03-03T15:04:01.882Z,27.90
2023-03-03T15:06:49.910Z,28.37
2023-03-03T15:09:33.686Z,24.05
2023-03-03T15:12:00.868Z,25.10
2023-03-03T15:14:43.364Z,24.95
2023-03-03T15:17:33.646Z,24.95
2023-03-03T15:20:22.606Z,23.63
2023-03-03T15:23:26.732Z,24.05
2023-03-03T15:26:10.071Z,22.52
2023-03-03T15:28:54.601Z,22.42
2023-03-03T15:31:36.354Z,23.55
2023-03-03T15:34:36.904Z,25.38
2023-03-03T15:37:06.427Z,24.27
2023-03-03T15:39:55.428Z,24.73
2023-03-03T15:42:53.553Z,24.90
2023-03-03T15:45:37.912Z,24.92
2023-03-03T15:48:25.054Z,26.15
2023-03-03T15:50:57.638Z,27.25
2023-03-03T15:53:27.047Z,27.65
2023-03-03T15:56:18.016Z,24.85
2023-03-03T15:59:21.601Z,31.67
2023-03-03T16:02:00.754Z,25.60
2023-03-03T16:04:34.922Z,25.92
2023-03-03T16:07:22.762Z,26.10
2023-03-03T16:10:12.448Z,35.10
2023-03-03T16:12:59.022Z,30.23
2023-03-03T16:15:47.735Z,29.48
2023-03-03T16:18:38.937Z,29.33
2023-03-03T16:21:29.196Z,33.00
2023-03-03T16:24:23.025Z,29.30
2023-03-03T16:27:08.421Z,28.58
2023-03-03T16:30:06.103Z,28.60
2023-03-03T16:32:46.659Z,29.42
2023-03-03T16:35:24.430Z,29.20
2023-03-03T16:37:57.802Z,28.70
2023-03-03T16:40:31.819Z,30.02
2023-03-03T16:43:23.438Z,30.63
2023-03-03T16:45:50.342Z,29.83
2023-03-03T16:48:26.537Z,28.75
2023-03-03T16:50:59.032Z,29.42
2023-03-03T16:53:54.421Z,29.77
2023-03-03T16:56:24.220Z,30.55
2023-03-03T16:59:12.357Z,27.58
2023-03-03T17:01:45.937Z,29.67
2023-03-03T17:05:05.625Z,29.42
2023-03-03T17:07:39.438Z,29.00
2023-03-03T17:10:08.581Z,29.48
2023-03-03T17:12:48.098Z,30.52
2023-03-03T17:15:43.754Z,30.90
2023-03-03T17:18:35.466Z,29.33
2023-03-03T17:21:10.286Z,32.35
2023-03-03T17:26:36.566Z,30.27
2023-03-03T17:29:18.127Z,33.00
2023-03-03T17:31:47.811Z,32.13
2023-03-03T17:34:29.342Z,35.67
2023-03-03T17:36:56.082Z,34.50
2023-03-03T17:39:28.354Z,36.20
2023-03-03T17:42:13.782Z,35.80
2023-03-03T17:44:58.965Z,37.35
2023-03-03T17:47:34.505Z,39.38
2023-03-03T17:50:01.002Z,37.00
2023-03-03T17:52:33.358Z,38.17
2023-03-03T17:55:26.249Z,37.15
2023-03-03T17:58:04.324Z,38.65
2023-03-03T18:00:44.263Z,39.53
2023-03-03T18:03:16.547Z,39.97
2023-03-03T18:06:05.237Z,39.80
2023-03-03T18:08:45.332Z,40.65
2023-03-03T18:11:33.567Z,39.03
2023-03-03T18:14:21.834Z,38.63
2023-03-03T18:17:24.123Z,39.75
2023-03-03T18:20:02.527Z,40.80
2023-03-03T18:22:41.099Z,40.33
2023-03-03T18:25:16.799Z,39.13
2023-03-03T18:27:45.437Z,39.03
2023-03-03T18:30:20.180Z,38.83
2023-03-03T18:33:01.011Z,38.70
2023-03-03T18:35:38.283Z,38.00
2023-03-03T18:38:32.902Z,39.72
2023-03-03T18:41:03.888Z,39.38
2023-03-03T18:43:45.636Z,38.58
2023-03-03T18:46:22.644Z,38.03
2023-03-03T18:48:58.468Z,37.13
2023-03-03T18:51:39.934Z,39.00
2023-03-03T18:54:12.391Z,38.30
2023-03-03T18:56:55.199Z,35.90
2023-03-03T18:59:30.743Z,36.65
2023-03-03T19:02:12.727Z,35.40
2023-03-03T19:04:43.646Z,36.00
2023-03-03T19:07:15.038Z,35.40
2023-03-03T19:09:52.562Z,35.83
2023-03-03T19:12:39.485Z,34.58
2023-03-03T19:15:26.727Z,35.85
2023-03-03T19:17:56.116Z,32.92
2023-03-03T19:20:25.090Z,32.05
2023-03-03T19:23:02.343Z,33.92
2023-03-03T19:25:31.705Z,35.00
2023-03-03T19:27:58.167Z,33.55
2023-03-03T19:30:36.357Z,33.40
2023-03-03T19:33:18.272Z,31.27
2023-03-03T19:36:35.551Z,32.67
2023-03-03T19:39:13.114Z,32.70
2023-03-03T19:41:45.493Z,31.63
2023-03-03T19:44:52.398Z,32.30
2023-03-03T19:47:51.714Z,29.38
2023-03-03T19:50:45.703Z,30.42
2023-03-03T19:53:12.122Z,30.58
2023-03-03T19:55:54.290Z,28.98
2023-03-03T19:58:42.433Z,29.92
2023-03-03T20:01:29.939Z,27.83
2023-03-03T20:04:28.810Z,27.17
2023-03-03T20:07:33.885Z,27.65
2023-03-03T20:10:15.456Z,26.55
2023-03-03T20:12:54.425Z,27.15
2023-03-03T20:15:28.408Z,25.98
2023-03-03T20:18:14.099Z,25.40
2023-03-03T20:20:46.638Z,25.55
2023-03-03T20:23:24.706Z,25.33
2023-03-03T20:26:09.239Z,23.77
2023-03-03T20:29:17.704Z,24.38
2023-03-03T20:32:07.743Z,24.88
2023-03-03T20:34:47.287Z,23.75
2023-03-03T20:37:18.975Z,23.50
2023-03-03T20:40:09.332Z,22.38
2023-03-03T20:42:54.279Z,23.08
2023-03-03T20:45:41.802Z,21.38
2023-03-03T20:48:20.504Z,21.08
2023-03-03T20:51:18.226Z,21.70
2023-03-03T20:53:53.582Z,22.25
2023-03-03T20:56:54.013Z,20.65
2023-03-03T20:59:42.214Z,19.92
2023-03-03T21:02:22.236Z,20.55
2023-03-03T21:05:08.563Z,21.35
2023-03-03T21:07:36.564Z,20.25
2023-03-03T21:10:20.198Z,22.20
2023-03-03T21:12:46.851Z,20.40
2023-03-03T21:15:27.404Z,20.63
2023-03-03T21:17:55.249Z,20.38
2023-03-03T21:20:34.667Z,20.77
2023-03-03T21:23:02.503Z,20.13
2023-03-03T21:25:53.368Z,21.27
2023-03-03T21:28:24.728Z,19.80
2023-03-03T21:31:06.431Z,20.70
2023-03-03T21:33:58.961Z,20.02
2023-03-03T21:36:46.163Z,19.02
2023-03-03T21:39:40.060Z,18.92
2023-03-03T21:42:12.046Z,19.83
2023-03-03T21:44:52.486Z,20.30
2023-03-03T21:47:22.018Z,20.02
2023-03-03T21:49:50.698Z,19.73
2023-03-03T21:52:19.027Z,20.17
2023-03-03T21:54:47.289Z,20.98
2023-03-03T21:57:14.527Z,20.05
2023-03-03T21:59:41.254Z,20.73
2023-03-03T22:02:08.873Z,20.02
2023-03-03T22:04:35.683Z,19.98
2023-03-03T22:07:02.219Z,20.23
2023-03-03T22:09:28.761Z,21.65
2023-03-03T22:11:55.367Z,20.63
2023-03-03T22:14:21.942Z,20.88
2023-03-03T22:16:48.479Z,20.80
2023-03-03T22:19:15.150Z,22.00
2023-03-03T22:21:41.688Z,20.90
2023-03-03T22:24:08.774Z,20.70
2023-03-03T22:26:35.895Z,20.63
2023-03-03T22:29:02.492Z,20.55
2023-03-03T22:31:29.331Z,21.15
2023-03-03T22:33:56.065Z,20.50
2023-03-03T22:36:22.620Z,20.67
2023-03-03T22:38:49.450Z,20.52
2023-03-03T22:41:16.081Z,20.67
2023-03-03T22:43:42.702Z,20.60
2023-03-03T22:46:10.104Z,20.55
2023-03-03T22:48:37.469Z,20.52
2023-03-03T22:51:04.727Z,21.92
2023-03-03T22:53:31.287Z,20.80
2023-03-03T22:55:57.811Z,20.90
2023-03-03T22:58:27.140Z,20.77
2023-03-03T23:00:54.417Z,18.52
2023-03-03T23:03:21.535Z,20.30
2023-03-03T23:05:51.511Z,20.75
2023-03-03T23:08:20.129Z,20.67
2023-03-03T23:10:46.891Z,19.63
2023-03-03T23:13:13.567Z,19.80
2023-03-03T23:15:40.266Z,20.33
2023-03-03T23:18:06.970Z,20.00
2023-03-03T23:20:33.728Z,19.13
2023-03-03T23:23:00.585Z,19.50
2023-03-03T23:25:28.761Z,19.58
2023-03-03T23:27:56.021Z,19.83
2023-03-03T23:30:22.996Z,19.73
2023-03-03T23:32:49.872Z,18.08
2023-03-03T23:35:16.736Z,18.88
2023-03-03T23:37:43.421Z,17.52
2023-03-03T23:40:10.532Z,17.67
2023-03-03T23:42:37.115Z,18.42
2023-03-03T23:45:04.087Z,17.83
2023-03-03T23:47:30.645Z,17.58
2023-03-03T23:49:57.183Z,16.63
2023-03-03T23:52:23.705Z,17.40
2023-03-03T23:54:50.270Z,17.75
2023-03-03T23:57:16.790Z,17.13
2023-03-03T23:59:43.313Z,17.73
